Flight Track Log - Related Links

Times and Time Zones

All times are in EST time to prevent confusion due to time zone crossing. See the N183HP flight status page for this flight to view local times or setup timezone preferences in your user account.

Time Position Orientation Groundspeed Altitude Reporting Facility
EST Latitude Longitude Course Direction KTS MPH feet Rate Location/Type
Sat 03:36:32 PM 39.8864 -84.2289 203° Southwest 111 128 1,300  Level Indianapolis Center
Sat 03:37:27 PM 39.8642 -84.2411 203° Southwest 98 113 2,400 1,080 Climbing Indianapolis Center
Sat 03:38:12 PM 39.8506 -84.2250 138° Southeast 141 162 3,100 1,000 Climbing Indianapolis Center
Sat 03:38:27 PM 39.8483 -84.2111 102° East 132 152 3,400 774 Climbing Indianapolis Center
Sat 03:39:14 PM 39.8569 -84.1706 75° East 153 176 3,900 689 Climbing Indianapolis Center
Sat 03:39:28 PM 39.8608 -84.1533 74° East 167 192 4,100 590 Climbing Indianapolis Center
Sat 03:40:15 PM 39.8667 -84.1122 80° East 159 183 4,500 600 Climbing Indianapolis Center
Sat 03:40:28 PM 39.8672 -84.0917 88° East 182 209 4,700 689 Climbing Indianapolis Center
Sat 03:41:16 PM 39.8675 -84.0461 90° East 171 197 5,200 590 Climbing Indianapolis Center
Sat 03:41:29 PM 39.8678 -84.0261 89° East 179 206 5,300 568 Climbing Indianapolis Center
Sat 03:42:30 PM 39.8669 -83.9550 91° East 187 215 5,900 491 Climbing Indianapolis Center
Sat 03:43:19 PM 39.8675 -83.9128 89° East 182 209 6,200 400 Climbing Indianapolis Center
Sat 03:43:30 PM 39.8717 -83.8875 78° East 200 230 6,300 393 Climbing Indianapolis Center
Sat 03:44:20 PM 39.8756 -83.8392 84° East 194 223 6,600 393 Climbing Indianapolis Center
Sat 03:44:31 PM 39.8778 -83.8094 84° East 206 237 6,700 295 Climbing Indianapolis Center
Sat 03:45:21 PM 39.8836 -83.7642 80° East 203 234 6,900 295 Climbing Indianapolis Center
Sat 03:45:32 PM 39.8875 -83.7347 80° East 211 243 7,000  Climbing Indianapolis Center
Sat 03:46:22 PM 39.8961 -83.6717 80° East 211 243 6,900 100 Descending Indianapolis Center
Sat 03:46:32 PM 39.8992 -83.6603 71° East 216 249 7,100 97 Climbing Indianapolis Center
Sat 03:47:24 PM 39.9083 -83.5956 80° East 213 245 7,000 -98 Descending Indianapolis Center
Sat 03:47:33 PM 39.9092 -83.5828 85° East 216 249 7,000  Level Indianapolis Center
Sat 03:48:25 PM 39.9175 -83.5169 81° East 214 246 7,000  Level Indianapolis Center
Sat 03:48:34 PM 39.9192 -83.5025 81° East 217 250 7,000 98 Level Indianapolis Center
Sat 03:49:26 PM 39.9244 -83.4372 84° East 216 249 7,100  Climbing Indianapolis Center
Sat 03:49:34 PM 39.9250 -83.4244 87° East 217 250 7,000  Descending Indianapolis Center
Sat 03:50:27 PM 39.9317 -83.3592 82° East 215 247 7,100  Climbing Indianapolis Center
Sat 03:50:35 PM 39.9328 -83.3464 84° East 214 246 7,000  Descending Indianapolis Center
Sat 03:51:29 PM 39.9389 -83.2819 83° East 214 246 7,100  Climbing Indianapolis Center
Sat 03:51:36 PM 39.9403 -83.2686 82° East 215 247 7,000  Descending Indianapolis Center
Sat 03:52:30 PM 39.9453 -83.2047 84° East 215 247 7,100  Climbing Indianapolis Center
Sat 03:52:36 PM 39.9478 -83.1906 77° East 215 247 7,000  Descending Indianapolis Center
Sat 03:53:31 PM 39.9525 -83.1278 84° East 214 246 7,100  Climbing Indianapolis Center
Sat 03:53:37 PM 39.9531 -83.1150 87° East 214 246 7,000  Descending Indianapolis Center
Sat 03:54:32 PM 39.9597 -83.0503 82° East 216 249 7,100  Climbing Indianapolis Center
Sat 03:54:38 PM 39.9606 -83.0369 85° East 215 247 7,000  Descending Indianapolis Center
Sat 03:55:33 PM 39.9667 -82.9731 83° East 215 247 7,100  Climbing Indianapolis Center
Sat 03:55:38 PM 39.9678 -82.9617 83° East 215 247 7,000  Descending Indianapolis Center
Sat 03:56:35 PM 39.9742 -82.8958 83° East 216 249 7,100  Climbing Indianapolis Center
Sat 03:56:39 PM 39.9756 -82.8811 83° East 215 247 7,000  Descending Indianapolis Center
Sat 03:57:36 PM 39.9803 -82.8192 84° East 214 246 7,100  Climbing Indianapolis Center
Sat 03:57:40 PM 39.9828 -82.8031 79° East 214 246 7,000 -94 Descending Indianapolis Center
Sat 03:58:40 PM 39.9878 -82.7275 85° East 215 247 7,000 51 Level Indianapolis Center
Sat 03:59:38 PM 39.9950 -82.6653 81° East 215 247 7,100  Climbing Indianapolis Center
Sat 03:59:41 PM 39.9950 -82.6494 90° East 217 250 7,000 -94 Descending Indianapolis Center
Sat 04:00:42 PM 40.0022 -82.5714 83° East 217 250 7,000  Level Indianapolis Center
Sat 04:01:40 PM 40.0097 -82.4931 83° East 216 249 7,000 -50 Level Indianapolis Center
Sat 04:02:42 PM 40.0167 -82.4169 83° East 213 245 6,900  Descending Indianapolis Center
Sat 04:03:43 PM 40.0231 -82.3397 84° East 216 249 7,000 49 Climbing Indianapolis Center
Sat 04:04:44 PM 40.0300 -82.2622 83° East 216 249 7,000  Level Indianapolis Center
Sat 04:05:45 PM 40.0369 -82.1867 83° East 212 244 7,000 49 Level Indianapolis Center
Sat 04:06:46 PM 40.0417 -82.1083 85° East 215 247 7,100 49 Climbing Indianapolis Center
Sat 04:07:47 PM 40.0481 -82.0328 84° East 212 244 7,100  Level Indianapolis Center
Sat 04:08:49 PM 40.0542 -81.9569 84° East 211 243 7,100  Level Indianapolis Center
Sat 04:09:50 PM 40.0614 -81.8817 83° East 211 243 7,100  Level Indianapolis Center
Sat 04:10:51 PM 40.0681 -81.7897 85° East 212 244 7,100  Level Indianapolis Center
Sat 04:11:52 PM 40.0742 -81.7147 84° East 212 244 7,100  Level Indianapolis Center
Sat 04:12:53 PM 40.0806 -81.6369 84° East 213 245 7,100  Level Indianapolis Center
Sat 04:13:54 PM 40.0864 -81.5606 84° East 211 243 7,100  Level Indianapolis Center
Sat 04:14:55 PM 40.0931 -81.4842 83° East 210 242 7,100  Level Indianapolis Center
Sat 04:15:57 PM 40.0981 -81.4081 85° East 209 241 7,100 -49 Level Indianapolis Center
Sat 04:16:58 PM 40.1033 -81.3317 85° East 210 242 7,000 -49 Descending Indianapolis Center
Sat 04:17:59 PM 40.1089 -81.2550 85° East 210 242 7,000  Level Indianapolis Center
Sat 04:19:00 PM 40.1153 -81.1775 84° East 212 244 7,000  Level Indianapolis Center
Sat 04:20:01 PM 40.1206 -81.1006 85° East 212 244 7,000 -52 Level Indianapolis Center
Sat 04:20:56 PM 40.1278 -81.0225 83° East 213 245 6,900 -51 Descending Cleveland Center
Sat 04:21:58 PM 40.1331 -80.9469 85° East 210 242 6,900  Level Cleveland Center
Sat 04:22:59 PM 40.1389 -80.8697 84° East 213 245 6,900  Level Cleveland Center
Sat 04:24:00 PM 40.1436 -80.7928 85° East 214 246 6,900  Level Cleveland Center
Sat 04:25:02 PM 40.1492 -80.7164 85° East 212 244 6,900 -49 Level Cleveland Center
Sat 04:26:03 PM 40.1547 -80.6372 85° East 218 251 6,800 -295 Descending Cleveland Center
Sat 04:27:04 PM 40.1606 -80.5519 85° East 233 268 6,300 -492 Descending Cleveland Center
Sat 04:28:05 PM 40.1664 -80.4661 85° East 239 275 5,800 -488 Descending Cleveland Center
Sat 04:29:07 PM 40.1731 -80.3792 84° East 241 277 5,300 -537 Descending Cleveland Center
Sat 04:30:08 PM 40.1803 -80.2772 85° East 238 274 4,700 -541 Descending Cleveland Center
Sat 04:31:09 PM 40.1861 -80.1967 85° East 230 265 4,200 -390 Descending Cleveland Center
Sat 04:32:11 PM 40.1903 -80.1211 86° East 220 253 3,900 -341 Descending Cleveland Center
Sat 04:33:12 PM 40.1953 -80.0425 85° East 211 243 3,500 -393 Descending Cleveland Center

Login

Don't have an account? Register now (free) for customized features, flight alerts, and more!